Huvudsida
METAR-TAF:

METAR-TAF

Flygplatser :

Rhodos internationella flygplats

Rhodos, Grekland

latitud: 36-24N, longitud: 028-05E, höjd: 4 m

Aktuellt väderrapport

Denna rapport gjordes för 24 minuter sedan, klockan 23:50 UTC
Vind 11 kt från väst/sydväst
Temperatur 27°C
Fuktighet 58%
Tryck 1006 hPa
Sikt 10 km eller mer
Inga moln under 1 500 m eller inga cumulonimbus

METAR: LGRP 222350Z 24011KT CAVOK 27/18 Q1006 NOSIG

Tid: 03:14 (00:14 UTC)

Väderprognos

Denna rapport gjordes för 1 timme och 14 minuter sedan, klockan 23:00 UTC
Prognos gäller från 23 kl. 00 UTC till 23 kl. 24 UTC
Vind 16 kt från väst/sydväst
Sikt 10 km eller mer
Få moln på en höjd av 4000 ft

TAF: LGRP 222300Z 2300/2324 24016KT 9999 FEW040

Aktuella väderrapporter och prognoser från 4000 flygplatser (METAR- och TAF-rapporter).

De tillgängliga stationerna syns som gula och röda prickar på kartan.

För musen över prickarna för att se namnen på stationerna.

Klicka sedan för att få väderrapporter och prognoser.

För att ändra kartan: Klicka på de gröna knapparna med ett svart kors på för att zooma in; den gröna knappen med ett streck på för att zooma ut; eller på de gröna pilarna för angränsande kartor.


METAR-TAF: